Decoded Metar for LFSN (NANCY ESSEY in FRANCE) (IATA:ENC) | Meteo·Mobile Aviation Weather
aviador You're here:

LFSN Decoded Metar

NANCY ESSEY in FRANCE
Report Time2019-02-21 23:30:00
UTC Time2019-02-21 23:40:32
Flight Rules vfr VFR
WindCalm
Visibility8000 m
Phenomena:N/A
Clouds:N/A
Expected CloudBase > 1,200 ft AGL from Temp-Dew spread
CeilingNone
Temp06°C (ISA -8)
Dew Point03°C (81% RH)
AAT4.5°C
QNH1032 hPa
Density Alt-738 ft
Elevation712 ft
Report Wrong Elevation
Raw Report
METAR LFSN 212330Z AUTO 00000KT 8000 NSC 06/03 Q1032=

Extra information for LFSN:More info

Metar Taf Metar & Taf Last 4 Metars F.Rules Stats Wind Profile Meteogram Temp Stats Airport Information Weather charts Add Link Nearby VenuesMetar ALERT Operation Metar Decoded Social comments